sensor_id;sensor_type;location;lat;lon;timestamp;temperature;humidity
15357;DHT22;7778;48.792;9.260;2022-07-15T00:02:13;19.60;86.90
15357;DHT22;7778;48.792;9.260;2022-07-15T00:04:58;19.30;87.00
15357;DHT22;7778;48.792;9.260;2022-07-15T00:07:44;19.30;87.40
15357;DHT22;7778;48.792;9.260;2022-07-15T00:10:30;19.20;88.00
15357;DHT22;7778;48.792;9.260;2022-07-15T00:13:17;19.20;88.80
15357;DHT22;7778;48.792;9.260;2022-07-15T00:16:04;19.10;88.90
15357;DHT22;7778;48.792;9.260;2022-07-15T00:18:58;19.00;88.90
15357;DHT22;7778;48.792;9.260;2022-07-15T00:21:43;18.90;89.60
15357;DHT22;7778;48.792;9.260;2022-07-15T00:24:29;18.90;90.30
15357;DHT22;7778;48.792;9.260;2022-07-15T00:27:15;18.80;89.80
15357;DHT22;7778;48.792;9.260;2022-07-15T00:30:02;18.80;90.20
15357;DHT22;7778;48.792;9.260;2022-07-15T00:32:49;18.70;89.50
15357;DHT22;7778;48.792;9.260;2022-07-15T00:35:37;18.60;90.00
15357;DHT22;7778;48.792;9.260;2022-07-15T00:38:23;18.60;90.50
15357;DHT22;7778;48.792;9.260;2022-07-15T00:41:09;18.50;90.70
15357;DHT22;7778;48.792;9.260;2022-07-15T00:43:54;18.50;90.70
15357;DHT22;7778;48.792;9.260;2022-07-15T00:46:43;18.50;91.00
15357;DHT22;7778;48.792;9.260;2022-07-15T00:49:29;18.50;91.10
15357;DHT22;7778;48.792;9.260;2022-07-15T00:52:15;18.30;91.30
15357;DHT22;7778;48.792;9.260;2022-07-15T00:55:04;18.30;91.90
15357;DHT22;7778;48.792;9.260;2022-07-15T00:57:56;18.20;92.00
15357;DHT22;7778;48.792;9.260;2022-07-15T01:00:45;18.10;92.50
15357;DHT22;7778;48.792;9.260;2022-07-15T01:03:34;18.00;93.80
15357;DHT22;7778;48.792;9.260;2022-07-15T01:06:20;18.00;93.50
15357;DHT22;7778;48.792;9.260;2022-07-15T01:09:06;17.90;93.50
15357;DHT22;7778;48.792;9.260;2022-07-15T01:11:52;17.90;93.90
15357;DHT22;7778;48.792;9.260;2022-07-15T01:14:38;17.90;94.90
15357;DHT22;7778;48.792;9.260;2022-07-15T01:17:24;17.90;94.80
15357;DHT22;7778;48.792;9.260;2022-07-15T01:20:12;17.80;95.30
15357;DHT22;7778;48.792;9.260;2022-07-15T01:23:00;17.70;96.20
15357;DHT22;7778;48.792;9.260;2022-07-15T01:25:46;17.60;96.30
15357;DHT22;7778;48.792;9.260;2022-07-15T01:28:32;17.60;96.30
15357;DHT22;7778;48.792;9.260;2022-07-15T01:31:18;17.40;96.70
15357;DHT22;7778;48.792;9.260;2022-07-15T01:34:03;17.40;97.50
15357;DHT22;7778;48.792;9.260;2022-07-15T01:36:49;17.40;98.30
15357;DHT22;7778;48.792;9.260;2022-07-15T01:39:36;17.50;98.70
15357;DHT22;7778;48.792;9.260;2022-07-15T01:42:22;17.30;99.40
15357;DHT22;7778;48.792;9.260;2022-07-15T01:45:08;17.50;99.70
15357;DHT22;7778;48.792;9.260;2022-07-15T01:47:55;17.00;99.60
15357;DHT22;7778;48.792;9.260;2022-07-15T01:50:41;16.40;99.90
15357;DHT22;7778;48.792;9.260;2022-07-15T01:53:27;16.40;99.90
15357;DHT22;7778;48.792;9.260;2022-07-15T01:56:14;16.30;99.90
15357;DHT22;7778;48.792;9.260;2022-07-15T01:59:00;16.40;99.90
15357;DHT22;7778;48.792;9.260;2022-07-15T02:01:45;16.60;99.90
15357;DHT22;7778;48.792;9.260;2022-07-15T02:04:31;16.80;99.90
15357;DHT22;7778;48.792;9.260;2022-07-15T02:07:17;16.90;99.90
15357;DHT22;7778;48.792;9.260;2022-07-15T02:10:03;17.00;99.90
15357;DHT22;7778;48.792;9.260;2022-07-15T02:12:51;17.00;99.90
15357;DHT22;7778;48.792;9.260;2022-07-15T02:15:37;17.00;99.90
15357;DHT22;7778;48.792;9.260;2022-07-15T02:18:23;16.90;99.90
15357;DHT22;7778;48.792;9.260;2022-07-15T02:21:08;16.90;99.90
15357;DHT22;7778;48.792;9.260;2022-07-15T02:23:55;16.90;99.90
15357;DHT22;7778;48.792;9.260;2022-07-15T02:26:41;16.90;99.90
15357;DHT22;7778;48.792;9.260;2022-07-15T02:29:30;17.00;99.90
15357;DHT22;7778;48.792;9.260;2022-07-15T02:32:15;17.00;99.90
15357;DHT22;7778;48.792;9.260;2022-07-15T02:35:01;17.00;99.90
15357;DHT22;7778;48.792;9.260;2022-07-15T02:37:47;17.00;99.90
15357;DHT22;7778;48.792;9.260;2022-07-15T02:40:33;17.00;99.90
15357;DHT22;7778;48.792;9.260;2022-07-15T02:43:18;17.00;99.90
15357;DHT22;7778;48.792;9.260;2022-07-15T02:46:05;16.90;99.90
15357;DHT22;7778;48.792;9.260;2022-07-15T02:48:51;16.90;99.90
15357;DHT22;7778;48.792;9.260;2022-07-15T02:51:36;16.90;99.90
15357;DHT22;7778;48.792;9.260;2022-07-15T02:54:22;16.90;99.90
15357;DHT22;7778;48.792;9.260;2022-07-15T02:57:08;16.90;99.90
15357;DHT22;7778;48.792;9.260;2022-07-15T02:59:53;16.80;99.90
15357;DHT22;7778;48.792;9.260;2022-07-15T03:02:40;16.80;99.90
15357;DHT22;7778;48.792;9.260;2022-07-15T03:05:27;16.70;99.90
15357;DHT22;7778;48.792;9.260;2022-07-15T03:08:13;16.70;99.90
15357;DHT22;7778;48.792;9.260;2022-07-15T03:10:58;16.50;99.90
15357;DHT22;7778;48.792;9.260;2022-07-15T03:13:44;16.50;99.90
15357;DHT22;7778;48.792;9.260;2022-07-15T03:16:29;16.40;99.90
15357;DHT22;7778;48.792;9.260;2022-07-15T03:19:16;16.30;99.90
15357;DHT22;7778;48.792;9.260;2022-07-15T03:22:02;16.20;99.90
15357;DHT22;7778;48.792;9.260;2022-07-15T03:24:48;16.20;99.90
15357;DHT22;7778;48.792;9.260;2022-07-15T03:27:34;16.40;99.90
15357;DHT22;7778;48.792;9.260;2022-07-15T03:30:19;16.10;99.90
15357;DHT22;7778;48.792;9.260;2022-07-15T03:33:06;16.10;99.90
15357;DHT22;7778;48.792;9.260;2022-07-15T03:35:53;16.10;99.90
15357;DHT22;7778;48.792;9.260;2022-07-15T03:38:39;16.10;99.90
15357;DHT22;7778;48.792;9.260;2022-07-15T03:41:25;16.10;99.90
15357;DHT22;7778;48.792;9.260;2022-07-15T03:44:10;16.00;99.90
15357;DHT22;7778;48.792;9.260;2022-07-15T03:46:56;16.10;99.90
15357;DHT22;7778;48.792;9.260;2022-07-15T03:49:42;16.00;99.90
15357;DHT22;7778;48.792;9.260;2022-07-15T03:52:29;16.10;99.90
15357;DHT22;7778;48.792;9.260;2022-07-15T03:55:14;16.00;99.90
15357;DHT22;7778;48.792;9.260;2022-07-15T03:58:00;16.00;99.90
15357;DHT22;7778;48.792;9.260;2022-07-15T04:00:46;15.90;99.90
15357;DHT22;7778;48.792;9.260;2022-07-15T04:03:31;15.90;99.90
15357;DHT22;7778;48.792;9.260;2022-07-15T04:06:19;15.90;99.90
15357;DHT22;7778;48.792;9.260;2022-07-15T04:09:07;15.90;99.90
15357;DHT22;7778;48.792;9.260;2022-07-15T04:11:54;16.10;99.90
15357;DHT22;7778;48.792;9.260;2022-07-15T04:14:40;16.10;99.90
15357;DHT22;7778;48.792;9.260;2022-07-15T04:17:25;16.30;99.90
15357;DHT22;7778;48.792;9.260;2022-07-15T04:20:11;16.40;99.90
15357;DHT22;7778;48.792;9.260;2022-07-15T04:22:57;16.40;99.90
15357;DHT22;7778;48.792;9.260;2022-07-15T04:25:44;16.50;99.90
15357;DHT22;7778;48.792;9.260;2022-07-15T04:28:30;16.60;99.90
15357;DHT22;7778;48.792;9.260;2022-07-15T04:31:16;16.60;99.90
15357;DHT22;7778;48.792;9.260;2022-07-15T04:34:02;16.60;99.90
15357;DHT22;7778;48.792;9.260;2022-07-15T04:36:48;16.70;99.90
15357;DHT22;7778;48.792;9.260;2022-07-15T04:39:33;16.80;99.90
15357;DHT22;7778;48.792;9.260;2022-07-15T04:42:21;16.90;99.90
15357;DHT22;7778;48.792;9.260;2022-07-15T04:45:08;17.00;99.90
15357;DHT22;7778;48.792;9.260;2022-07-15T04:47:54;17.10;99.90
15357;DHT22;7778;48.792;9.260;2022-07-15T04:50:40;17.20;99.90
15357;DHT22;7778;48.792;9.260;2022-07-15T04:53:33;17.30;99.90
15357;DHT22;7778;48.792;9.260;2022-07-15T04:56:18;17.30;99.90
15357;DHT22;7778;48.792;9.260;2022-07-15T04:59:06;17.30;99.90
15357;DHT22;7778;48.792;9.260;2022-07-15T05:01:51;17.30;99.90
15357;DHT22;7778;48.792;9.260;2022-07-15T05:04:38;17.50;99.90
15357;DHT22;7778;48.792;9.260;2022-07-15T05:07:24;17.70;99.90
15357;DHT22;7778;48.792;9.260;2022-07-15T05:10:10;17.80;99.90
15357;DHT22;7778;48.792;9.260;2022-07-15T05:12:56;18.50;99.90
15357;DHT22;7778;48.792;9.260;2022-07-15T05:15:44;19.40;99.90
15357;DHT22;7778;48.792;9.260;2022-07-15T05:18:30;21.00;99.90
15357;DHT22;7778;48.792;9.260;2022-07-15T05:21:16;23.30;99.90
15357;DHT22;7778;48.792;9.260;2022-07-15T05:24:02;25.70;99.00
15357;DHT22;7778;48.792;9.260;2022-07-15T05:26:48;27.60;90.70
15357;DHT22;7778;48.792;9.260;2022-07-15T05:29:33;29.20;81.10
15357;DHT22;7778;48.792;9.260;2022-07-15T05:32:20;30.50;75.70
15357;DHT22;7778;48.792;9.260;2022-07-15T05:35:07;31.00;68.20
15357;DHT22;7778;48.792;9.260;2022-07-15T05:37:53;31.80;69.10
15357;DHT22;7778;48.792;9.260;2022-07-15T05:40:38;32.70;63.90
15357;DHT22;7778;48.792;9.260;2022-07-15T05:43:27;33.20;59.40
15357;DHT22;7778;48.792;9.260;2022-07-15T05:46:14;32.50;59.20
15357;DHT22;7778;48.792;9.260;2022-07-15T05:49:01;32.40;59.60
15357;DHT22;7778;48.792;9.260;2022-07-15T05:51:47;32.90;57.40
15357;DHT22;7778;48.792;9.260;2022-07-15T05:54:33;32.40;57.70
15357;DHT22;7778;48.792;9.260;2022-07-15T05:57:18;32.70;57.30
15357;DHT22;7778;48.792;9.260;2022-07-15T06:00:05;33.00;55.60
15357;DHT22;7778;48.792;9.260;2022-07-15T06:02:53;32.60;56.30
15357;DHT22;7778;48.792;9.260;2022-07-15T06:05:40;31.90;55.80
15357;DHT22;7778;48.792;9.260;2022-07-15T06:08:26;31.70;55.80
15357;DHT22;7778;48.792;9.260;2022-07-15T06:11:12;31.70;57.20
15357;DHT22;7778;48.792;9.260;2022-07-15T06:13:57;32.20;56.70
15357;DHT22;7778;48.792;9.260;2022-07-15T06:16:43;32.10;55.00
15357;DHT22;7778;48.792;9.260;2022-07-15T06:19:29;32.20;55.70
15357;DHT22;7778;48.792;9.260;2022-07-15T06:22:16;32.80;55.10
15357;DHT22;7778;48.792;9.260;2022-07-15T06:25:01;33.30;54.10
15357;DHT22;7778;48.792;9.260;2022-07-15T06:27:48;33.20;53.40
15357;DHT22;7778;48.792;9.260;2022-07-15T06:30:33;32.60;51.10
15357;DHT22;7778;48.792;9.260;2022-07-15T06:33:19;32.00;52.40
15357;DHT22;7778;48.792;9.260;2022-07-15T06:36:12;31.90;54.10
15357;DHT22;7778;48.792;9.260;2022-07-15T06:38:59;32.00;53.60
15357;DHT22;7778;48.792;9.260;2022-07-15T06:41:45;33.00;52.50
15357;DHT22;7778;48.792;9.260;2022-07-15T06:44:31;33.00;50.40
15357;DHT22;7778;48.792;9.260;2022-07-15T06:47:17;32.80;51.50
15357;DHT22;7778;48.792;9.260;2022-07-15T06:50:04;31.40;51.00
15357;DHT22;7778;48.792;9.260;2022-07-15T06:52:50;30.20;53.00
15357;DHT22;7778;48.792;9.260;2022-07-15T06:55:37;30.50;52.50
15357;DHT22;7778;48.792;9.260;2022-07-15T06:58:24;31.40;54.90
15357;DHT22;7778;48.792;9.260;2022-07-15T07:01:09;32.10;52.20
15357;DHT22;7778;48.792;9.260;2022-07-15T07:03:55;32.00;53.20
15357;DHT22;7778;48.792;9.260;2022-07-15T07:06:41;32.10;51.40
15357;DHT22;7778;48.792;9.260;2022-07-15T07:09:27;32.00;50.60
15357;DHT22;7778;48.792;9.260;2022-07-15T07:12:14;31.90;51.00
15357;DHT22;7778;48.792;9.260;2022-07-15T07:14:59;31.70;51.70
15357;DHT22;7778;48.792;9.260;2022-07-15T07:17:46;31.10;51.00
15357;DHT22;7778;48.792;9.260;2022-07-15T07:20:32;30.90;51.40
15357;DHT22;7778;48.792;9.260;2022-07-15T07:23:17;30.80;51.50
15357;DHT22;7778;48.792;9.260;2022-07-15T07:26:05;30.60;51.20
15357;DHT22;7778;48.792;9.260;2022-07-15T07:28:52;29.40;51.80
15357;DHT22;7778;48.792;9.260;2022-07-15T07:31:38;29.10;54.40
15357;DHT22;7778;48.792;9.260;2022-07-15T07:34:24;28.60;53.60
15357;DHT22;7778;48.792;9.260;2022-07-15T07:37:10;28.80;53.30
15357;DHT22;7778;48.792;9.260;2022-07-15T07:39:56;29.30;52.30
15357;DHT22;7778;48.792;9.260;2022-07-15T07:42:43;29.70;52.00
15357;DHT22;7778;48.792;9.260;2022-07-15T07:45:30;30.30;50.70
15357;DHT22;7778;48.792;9.260;2022-07-15T07:48:16;30.80;50.10
15357;DHT22;7778;48.792;9.260;2022-07-15T07:51:02;30.20;49.60
15357;DHT22;7778;48.792;9.260;2022-07-15T07:53:48;29.10;49.60
15357;DHT22;7778;48.792;9.260;2022-07-15T07:56:33;28.60;51.40
15357;DHT22;7778;48.792;9.260;2022-07-15T07:59:19;28.80;51.40
15357;DHT22;7778;48.792;9.260;2022-07-15T08:02:06;29.10;50.70
15357;DHT22;7778;48.792;9.260;2022-07-15T08:04:52;29.10;50.00
15357;DHT22;7778;48.792;9.260;2022-07-15T08:07:38;29.10;51.70
15357;DHT22;7778;48.792;9.260;2022-07-15T08:10:25;29.50;51.60
15357;DHT22;7778;48.792;9.260;2022-07-15T08:13:11;29.80;50.10
15357;DHT22;7778;48.792;9.260;2022-07-15T08:15:57;28.40;49.40
15357;DHT22;7778;48.792;9.260;2022-07-15T08:18:44;28.90;50.80
15357;DHT22;7778;48.792;9.260;2022-07-15T08:21:31;30.30;49.30
15357;DHT22;7778;48.792;9.260;2022-07-15T08:24:17;31.60;48.10
15357;DHT22;7778;48.792;9.260;2022-07-15T08:27:03;32.40;47.20
15357;DHT22;7778;48.792;9.260;2022-07-15T08:29:49;32.90;45.20
15357;DHT22;7778;48.792;9.260;2022-07-15T08:32:35;31.70;45.30
15357;DHT22;7778;48.792;9.260;2022-07-15T08:35:22;31.40;46.90
15357;DHT22;7778;48.792;9.260;2022-07-15T08:38:09;31.20;48.50
15357;DHT22;7778;48.792;9.260;2022-07-15T08:40:56;31.40;48.50
15357;DHT22;7778;48.792;9.260;2022-07-15T08:43:42;31.40;45.90
15357;DHT22;7778;48.792;9.260;2022-07-15T08:46:28;31.10;47.10
15357;DHT22;7778;48.792;9.260;2022-07-15T08:49:17;32.40;48.00
15357;DHT22;7778;48.792;9.260;2022-07-15T08:52:05;33.90;47.70
15357;DHT22;7778;48.792;9.260;2022-07-15T08:54:51;34.80;46.20
15357;DHT22;7778;48.792;9.260;2022-07-15T08:57:38;33.90;42.90
15357;DHT22;7778;48.792;9.260;2022-07-15T09:00:25;34.40;45.40
15357;DHT22;7778;48.792;9.260;2022-07-15T09:03:13;35.30;44.80
15357;DHT22;7778;48.792;9.260;2022-07-15T09:05:59;35.20;42.80
15357;DHT22;7778;48.792;9.260;2022-07-15T09:08:46;34.60;44.00
15357;DHT22;7778;48.792;9.260;2022-07-15T09:11:32;34.70;42.10
15357;DHT22;7778;48.792;9.260;2022-07-15T09:14:19;33.10;42.40
15357;DHT22;7778;48.792;9.260;2022-07-15T09:17:22;32.00;45.30
15357;DHT22;7778;48.792;9.260;2022-07-15T09:20:10;32.40;46.30
15357;DHT22;7778;48.792;9.260;2022-07-15T09:22:58;33.20;45.50
15357;DHT22;7778;48.792;9.260;2022-07-15T09:25:46;33.20;46.90
15357;DHT22;7778;48.792;9.260;2022-07-15T09:28:38;33.80;45.00
15357;DHT22;7778;48.792;9.260;2022-07-15T09:31:33;34.30;43.60
15357;DHT22;7778;48.792;9.260;2022-07-15T09:34:58;34.90;45.60
15357;DHT22;7778;48.792;9.260;2022-07-15T09:37:54;35.40;42.60
15357;DHT22;7778;48.792;9.260;2022-07-15T09:40:48;34.90;44.30
15357;DHT22;7778;48.792;9.260;2022-07-15T09:43:45;34.50;44.30
15357;DHT22;7778;48.792;9.260;2022-07-15T09:46:43;34.20;42.70
15357;DHT22;7778;48.792;9.260;2022-07-15T09:49:34;33.60;45.50
15357;DHT22;7778;48.792;9.260;2022-07-15T09:52:22;33.00;43.40
15357;DHT22;7778;48.792;9.260;2022-07-15T09:55:08;32.60;44.90
15357;DHT22;7778;48.792;9.260;2022-07-15T09:57:55;33.20;43.90
15357;DHT22;7778;48.792;9.260;2022-07-15T10:00:43;33.80;43.70
15357;DHT22;7778;48.792;9.260;2022-07-15T10:03:29;34.30;42.80
15357;DHT22;7778;48.792;9.260;2022-07-15T10:06:07;34.20;43.00
15357;DHT22;7778;48.792;9.260;2022-07-15T10:08:54;34.30;43.90
15357;DHT22;7778;48.792;9.260;2022-07-15T10:11:43;34.50;42.90
15357;DHT22;7778;48.792;9.260;2022-07-15T10:14:49;33.90;41.80
15357;DHT22;7778;48.792;9.260;2022-07-15T10:17:53;33.30;43.30
15357;DHT22;7778;48.792;9.260;2022-07-15T10:20:55;33.40;44.40
15357;DHT22;7778;48.792;9.260;2022-07-15T10:27:28;34.00;43.60
15357;DHT22;7778;48.792;9.260;2022-07-15T10:30:22;34.00;42.30
15357;DHT22;7778;48.792;9.260;2022-07-15T10:33:16;33.40;43.80
15357;DHT22;7778;48.792;9.260;2022-07-15T10:36:05;33.40;46.90
15357;DHT22;7778;48.792;9.260;2022-07-15T10:39:02;33.40;43.10
15357;DHT22;7778;48.792;9.260;2022-07-15T10:41:51;32.60;43.40
15357;DHT22;7778;48.792;9.260;2022-07-15T10:44:49;31.60;45.50
15357;DHT22;7778;48.792;9.260;2022-07-15T10:47:38;30.00;45.80
15357;DHT22;7778;48.792;9.260;2022-07-15T10:50:38;29.60;47.80
15357;DHT22;7778;48.792;9.260;2022-07-15T10:53:25;30.40;46.50
15357;DHT22;7778;48.792;9.260;2022-07-15T10:56:27;30.80;46.50
15357;DHT22;7778;48.792;9.260;2022-07-15T10:59:16;30.50;47.70
15357;DHT22;7778;48.792;9.260;2022-07-15T11:02:15;30.70;46.60
15357;DHT22;7778;48.792;9.260;2022-07-15T11:05:20;30.20;47.20
15357;DHT22;7778;48.792;9.260;2022-07-15T11:11:47;30.50;48.60
15357;DHT22;7778;48.792;9.260;2022-07-15T11:14:44;31.00;47.40
15357;DHT22;7778;48.792;9.260;2022-07-15T11:17:38;30.40;45.90
15357;DHT22;7778;48.792;9.260;2022-07-15T11:20:33;30.50;46.60
15357;DHT22;7778;48.792;9.260;2022-07-15T11:23:29;30.50;46.50
15357;DHT22;7778;48.792;9.260;2022-07-15T11:26:16;30.20;48.90
15357;DHT22;7778;48.792;9.260;2022-07-15T11:29:02;30.40;48.00
15357;DHT22;7778;48.792;9.260;2022-07-15T11:31:48;30.50;48.20
15357;DHT22;7778;48.792;9.260;2022-07-15T11:34:39;30.60;48.20
15357;DHT22;7778;48.792;9.260;2022-07-15T11:37:28;30.60;46.00
15357;DHT22;7778;48.792;9.260;2022-07-15T11:40:17;30.60;47.50
15357;DHT22;7778;48.792;9.260;2022-07-15T11:43:18;30.30;47.00
15357;DHT22;7778;48.792;9.260;2022-07-15T11:46:23;28.40;49.60
15357;DHT22;7778;48.792;9.260;2022-07-15T11:49:09;27.40;52.70
15357;DHT22;7778;48.792;9.260;2022-07-15T11:51:55;27.30;50.40
15357;DHT22;7778;48.792;9.260;2022-07-15T11:54:42;27.60;51.80
15357;DHT22;7778;48.792;9.260;2022-07-15T11:57:32;28.40;53.50
15357;DHT22;7778;48.792;9.260;2022-07-15T12:00:28;28.50;50.80
15357;DHT22;7778;48.792;9.260;2022-07-15T12:03:14;28.20;51.70
15357;DHT22;7778;48.792;9.260;2022-07-15T12:06:13;28.00;51.70
15357;DHT22;7778;48.792;9.260;2022-07-15T12:09:02;27.70;52.70
15357;DHT22;7778;48.792;9.260;2022-07-15T12:11:51;28.00;53.90
15357;DHT22;7778;48.792;9.260;2022-07-15T12:14:37;28.50;54.40
15357;DHT22;7778;48.792;9.260;2022-07-15T12:17:23;29.10;52.00
15357;DHT22;7778;48.792;9.260;2022-07-15T12:20:09;29.00;50.60
15357;DHT22;7778;48.792;9.260;2022-07-15T12:23:03;28.80;49.50
15357;DHT22;7778;48.792;9.260;2022-07-15T12:26:01;29.10;51.40
15357;DHT22;7778;48.792;9.260;2022-07-15T12:28:54;29.70;51.70
15357;DHT22;7778;48.792;9.260;2022-07-15T12:31:41;29.50;49.70
15357;DHT22;7778;48.792;9.260;2022-07-15T12:34:49;28.80;53.00
15357;DHT22;7778;48.792;9.260;2022-07-15T12:37:55;28.00;51.80
15357;DHT22;7778;48.792;9.260;2022-07-15T12:40:40;27.50;52.70
15357;DHT22;7778;48.792;9.260;2022-07-15T12:43:45;27.20;52.80
15357;DHT22;7778;48.792;9.260;2022-07-15T12:46:56;27.60;55.70
15357;DHT22;7778;48.792;9.260;2022-07-15T12:49:48;28.20;53.70
15357;DHT22;7778;48.792;9.260;2022-07-15T12:52:37;28.60;52.40
15357;DHT22;7778;48.792;9.260;2022-07-15T12:55:25;28.50;53.70
15357;DHT22;7778;48.792;9.260;2022-07-15T12:58:15;28.10;51.00
15357;DHT22;7778;48.792;9.260;2022-07-15T13:01:09;27.80;53.50
15357;DHT22;7778;48.792;9.260;2022-07-15T13:03:59;28.10;53.00
15357;DHT22;7778;48.792;9.260;2022-07-15T13:06:45;28.10;52.70
15357;DHT22;7778;48.792;9.260;2022-07-15T13:09:31;28.00;52.90
15357;DHT22;7778;48.792;9.260;2022-07-15T13:12:18;27.60;52.90
15357;DHT22;7778;48.792;9.260;2022-07-15T13:15:06;27.40;53.10
15357;DHT22;7778;48.792;9.260;2022-07-15T13:17:53;27.00;54.00
15357;DHT22;7778;48.792;9.260;2022-07-15T13:20:41;26.50;54.60
15357;DHT22;7778;48.792;9.260;2022-07-15T13:23:30;26.50;55.30
15357;DHT22;7778;48.792;9.260;2022-07-15T13:26:16;26.50;57.00
15357;DHT22;7778;48.792;9.260;2022-07-15T13:29:02;27.00;56.50
15357;DHT22;7778;48.792;9.260;2022-07-15T13:31:51;27.40;58.30
15357;DHT22;7778;48.792;9.260;2022-07-15T13:34:37;27.80;56.70
15357;DHT22;7778;48.792;9.260;2022-07-15T13:37:25;28.10;57.00
15357;DHT22;7778;48.792;9.260;2022-07-15T13:40:12;28.10;56.80
15357;DHT22;7778;48.792;9.260;2022-07-15T13:42:58;28.10;55.80
15357;DHT22;7778;48.792;9.260;2022-07-15T13:45:43;28.00;54.40
15357;DHT22;7778;48.792;9.260;2022-07-15T13:48:29;27.60;53.20
15357;DHT22;7778;48.792;9.260;2022-07-15T13:51:15;27.40;55.30
15357;DHT22;7778;48.792;9.260;2022-07-15T13:54:10;27.30;54.40
15357;DHT22;7778;48.792;9.260;2022-07-15T13:56:56;27.20;55.00
15357;DHT22;7778;48.792;9.260;2022-07-15T13:59:50;27.60;52.80
15357;DHT22;7778;48.792;9.260;2022-07-15T14:02:36;27.90;56.50
15357;DHT22;7778;48.792;9.260;2022-07-15T14:05:22;28.40;54.80
15357;DHT22;7778;48.792;9.260;2022-07-15T14:08:08;28.50;54.40
15357;DHT22;7778;48.792;9.260;2022-07-15T14:10:56;28.80;52.70
15357;DHT22;7778;48.792;9.260;2022-07-15T14:13:42;29.10;54.30
15357;DHT22;7778;48.792;9.260;2022-07-15T14:16:28;29.40;53.50
15357;DHT22;7778;48.792;9.260;2022-07-15T14:19:14;29.30;53.30
15357;DHT22;7778;48.792;9.260;2022-07-15T14:22:05;29.00;51.80
15357;DHT22;7778;48.792;9.260;2022-07-15T14:24:51;29.00;53.70
15357;DHT22;7778;48.792;9.260;2022-07-15T14:27:38;28.80;53.40
15357;DHT22;7778;48.792;9.260;2022-07-15T14:30:24;28.80;52.90
15357;DHT22;7778;48.792;9.260;2022-07-15T14:33:10;28.70;52.60
15357;DHT22;7778;48.792;9.260;2022-07-15T14:35:56;28.30;53.20
15357;DHT22;7778;48.792;9.260;2022-07-15T14:38:42;28.20;54.20
15357;DHT22;7778;48.792;9.260;2022-07-15T14:41:28;27.90;54.50
15357;DHT22;7778;48.792;9.260;2022-07-15T14:44:15;27.70;55.20
15357;DHT22;7778;48.792;9.260;2022-07-15T14:47:02;27.50;53.90
15357;DHT22;7778;48.792;9.260;2022-07-15T14:49:50;27.50;55.10
15357;DHT22;7778;48.792;9.260;2022-07-15T14:52:36;27.40;54.50
15357;DHT22;7778;48.792;9.260;2022-07-15T14:55:22;27.30;54.90
15357;DHT22;7778;48.792;9.260;2022-07-15T14:58:08;27.00;55.70
15357;DHT22;7778;48.792;9.260;2022-07-15T15:00:58;26.90;56.30
15357;DHT22;7778;48.792;9.260;2022-07-15T15:03:44;26.80;56.30
15357;DHT22;7778;48.792;9.260;2022-07-15T15:06:29;26.80;55.00
15357;DHT22;7778;48.792;9.260;2022-07-15T15:09:15;26.80;55.00
15357;DHT22;7778;48.792;9.260;2022-07-15T15:12:01;26.60;55.80
15357;DHT22;7778;48.792;9.260;2022-07-15T15:14:47;26.50;56.90
15357;DHT22;7778;48.792;9.260;2022-07-15T15:17:34;26.30;56.50
15357;DHT22;7778;48.792;9.260;2022-07-15T15:20:19;26.20;56.30
15357;DHT22;7778;48.792;9.260;2022-07-15T15:23:05;26.20;57.10
15357;DHT22;7778;48.792;9.260;2022-07-15T15:25:51;26.00;55.90
15357;DHT22;7778;48.792;9.260;2022-07-15T15:28:55;26.00;56.70
15357;DHT22;7778;48.792;9.260;2022-07-15T15:31:41;25.90;55.90
15357;DHT22;7778;48.792;9.260;2022-07-15T15:34:28;25.80;57.80
15357;DHT22;7778;48.792;9.260;2022-07-15T15:37:15;25.80;57.50
15357;DHT22;7778;48.792;9.260;2022-07-15T15:40:01;25.80;57.10
15357;DHT22;7778;48.792;9.260;2022-07-15T15:42:47;25.70;57.90
15357;DHT22;7778;48.792;9.260;2022-07-15T15:45:33;25.90;57.80
15357;DHT22;7778;48.792;9.260;2022-07-15T15:48:19;26.00;56.80
15357;DHT22;7778;48.792;9.260;2022-07-15T15:51:06;26.10;56.80
15357;DHT22;7778;48.792;9.260;2022-07-15T15:53:52;26.00;57.00
15357;DHT22;7778;48.792;9.260;2022-07-15T15:56:38;26.00;57.00
15357;DHT22;7778;48.792;9.260;2022-07-15T15:59:23;25.80;56.70
15357;DHT22;7778;48.792;9.260;2022-07-15T16:02:09;25.70;56.60
15357;DHT22;7778;48.792;9.260;2022-07-15T16:04:55;25.70;56.60
15357;DHT22;7778;48.792;9.260;2022-07-15T16:07:42;25.70;57.40
15357;DHT22;7778;48.792;9.260;2022-07-15T16:10:28;25.50;56.20
15357;DHT22;7778;48.792;9.260;2022-07-15T16:13:14;25.50;56.50
15357;DHT22;7778;48.792;9.260;2022-07-15T16:16:00;25.50;57.30
15357;DHT22;7778;48.792;9.260;2022-07-15T16:18:46;25.50;57.90
15357;DHT22;7778;48.792;9.260;2022-07-15T16:21:32;25.60;57.00
15357;DHT22;7778;48.792;9.260;2022-07-15T16:24:37;25.60;57.30
15357;DHT22;7778;48.792;9.260;2022-07-15T16:27:23;25.40;56.70
15357;DHT22;7778;48.792;9.260;2022-07-15T16:30:09;25.30;56.80
15357;DHT22;7778;48.792;9.260;2022-07-15T16:32:56;25.20;56.70
15357;DHT22;7778;48.792;9.260;2022-07-15T16:35:42;25.20;57.20
15357;DHT22;7778;48.792;9.260;2022-07-15T16:38:27;25.30;57.70
15357;DHT22;7778;48.792;9.260;2022-07-15T16:41:15;25.20;56.50
15357;DHT22;7778;48.792;9.260;2022-07-15T16:44:01;24.90;56.30
15357;DHT22;7778;48.792;9.260;2022-07-15T16:46:47;24.90;57.80
15357;DHT22;7778;48.792;9.260;2022-07-15T16:49:33;24.80;57.10
15357;DHT22;7778;48.792;9.260;2022-07-15T16:52:18;24.80;57.10
15357;DHT22;7778;48.792;9.260;2022-07-15T16:55:05;24.80;57.20
15357;DHT22;7778;48.792;9.260;2022-07-15T16:57:53;24.70;57.10
15357;DHT22;7778;48.792;9.260;2022-07-15T17:00:39;24.70;58.00
15357;DHT22;7778;48.792;9.260;2022-07-15T17:03:25;24.50;57.30
15357;DHT22;7778;48.792;9.260;2022-07-15T17:06:10;24.40;58.50
15357;DHT22;7778;48.792;9.260;2022-07-15T17:08:56;24.40;58.40
15357;DHT22;7778;48.792;9.260;2022-07-15T17:11:42;24.50;57.80
15357;DHT22;7778;48.792;9.260;2022-07-15T17:14:29;24.50;57.60
15357;DHT22;7778;48.792;9.260;2022-07-15T17:17:15;24.30;58.50
15357;DHT22;7778;48.792;9.260;2022-07-15T17:20:01;24.20;58.40
15357;DHT22;7778;48.792;9.260;2022-07-15T17:22:46;24.10;58.80
15357;DHT22;7778;48.792;9.260;2022-07-15T17:25:32;24.00;60.20
15357;DHT22;7778;48.792;9.260;2022-07-15T17:28:17;23.90;59.40
15357;DHT22;7778;48.792;9.260;2022-07-15T17:31:04;23.90;59.10
15357;DHT22;7778;48.792;9.260;2022-07-15T17:33:51;23.70;59.10
15357;DHT22;7778;48.792;9.260;2022-07-15T17:36:36;23.70;59.60
15357;DHT22;7778;48.792;9.260;2022-07-15T17:39:22;23.70;59.20
15357;DHT22;7778;48.792;9.260;2022-07-15T17:42:08;23.60;59.20
15357;DHT22;7778;48.792;9.260;2022-07-15T17:44:53;23.60;60.60
15357;DHT22;7778;48.792;9.260;2022-07-15T17:47:40;23.70;60.50
15357;DHT22;7778;48.792;9.260;2022-07-15T17:50:26;23.60;61.20
15357;DHT22;7778;48.792;9.260;2022-07-15T17:53:12;23.60;61.50
15357;DHT22;7778;48.792;9.260;2022-07-15T17:55:57;23.60;61.30
15357;DHT22;7778;48.792;9.260;2022-07-15T17:58:43;23.40;60.70
15357;DHT22;7778;48.792;9.260;2022-07-15T18:01:28;23.40;61.80
15357;DHT22;7778;48.792;9.260;2022-07-15T18:04:16;23.40;60.70